sensor_id;sensor_type;location;lat;lon;timestamp;temperature;humidity
52643;DHT22;38531;53.296;6.614;2023-03-01T02:36:31;-2.20;99.90
52643;DHT22;38531;53.296;6.614;2023-03-01T02:39:01;-0.60;99.90
52643;DHT22;38531;53.296;6.614;2023-03-01T02:41:34;-3.00;99.90
52643;DHT22;38531;53.296;6.614;2023-03-01T02:44:02;-1.00;99.90
52643;DHT22;38531;53.296;6.614;2023-03-01T02:46:28;-2.50;99.90
52643;DHT22;38531;53.296;6.614;2023-03-01T02:48:56;-1.50;99.90
52643;DHT22;38531;53.296;6.614;2023-03-01T02:56:43;-2.30;99.90
52643;DHT22;38531;53.296;6.614;2023-03-01T02:59:09;-2.30;99.90
52643;DHT22;38531;53.296;6.614;2023-03-01T03:01:35;-1.60;99.90
52643;DHT22;38531;53.296;6.614;2023-03-01T03:04:10;-2.70;99.90
52643;DHT22;38531;53.296;6.614;2023-03-01T03:06:37;-0.80;99.90
52643;DHT22;38531;53.296;6.614;2023-03-01T03:09:04;-2.60;99.90
52643;DHT22;38531;53.296;6.614;2023-03-01T03:11:30;-1.50;99.90
52643;DHT22;38531;53.296;6.614;2023-03-01T03:13:57;-2.60;99.90
52643;DHT22;38531;53.296;6.614;2023-03-01T03:16:23;-2.80;99.90
52643;DHT22;38531;53.296;6.614;2023-03-01T03:18:50;-2.40;99.90
52643;DHT22;38531;53.296;6.614;2023-03-01T03:21:16;-2.60;99.90
52643;DHT22;38531;53.296;6.614;2023-03-01T03:23:43;-0.40;99.90
52643;DHT22;38531;53.296;6.614;2023-03-01T03:26:08;-2.50;99.90
52643;DHT22;38531;53.296;6.614;2023-03-01T03:28:34;-2.00;99.90
52643;DHT22;38531;53.296;6.614;2023-03-01T03:31:01;-2.80;99.90
52643;DHT22;38531;53.296;6.614;2023-03-01T03:33:30;-3.00;99.90
52643;DHT22;38531;53.296;6.614;2023-03-01T03:35:56;-2.90;99.90
52643;DHT22;38531;53.296;6.614;2023-03-01T03:38:22;-2.80;99.90
52643;DHT22;38531;53.296;6.614;2023-03-01T03:40:50;-2.80;99.90
52643;DHT22;38531;53.296;6.614;2023-03-01T03:43:21;-3.60;99.90
52643;DHT22;38531;53.296;6.614;2023-03-01T03:45:49;-2.90;99.90
52643;DHT22;38531;53.296;6.614;2023-03-01T03:48:16;-2.90;99.90
52643;DHT22;38531;53.296;6.614;2023-03-01T03:50:41;-2.90;99.90
52643;DHT22;38531;53.296;6.614;2023-03-01T03:53:12;-3.50;99.90
52643;DHT22;38531;53.296;6.614;2023-03-01T03:55:38;-1.70;99.90
52643;DHT22;38531;53.296;6.614;2023-03-01T03:58:08;-2.40;99.90
52643;DHT22;38531;53.296;6.614;2023-03-01T04:00:39;-2.80;99.90
52643;DHT22;38531;53.296;6.614;2023-03-01T04:03:06;-3.00;99.90
52643;DHT22;38531;53.296;6.614;2023-03-01T04:05:36;-1.50;99.90
52643;DHT22;38531;53.296;6.614;2023-03-01T04:08:06;-3.90;99.90
52643;DHT22;38531;53.296;6.614;2023-03-01T04:10:37;-2.80;99.90
52643;DHT22;38531;53.296;6.614;2023-03-01T04:13:05;-1.70;99.90
52643;DHT22;38531;53.296;6.614;2023-03-01T04:15:31;-2.80;99.90
52643;DHT22;38531;53.296;6.614;2023-03-01T04:17:58;-2.70;99.90
52643;DHT22;38531;53.296;6.614;2023-03-01T04:20:26;-2.40;99.90
52643;DHT22;38531;53.296;6.614;2023-03-01T04:23:09;-2.20;99.90
52643;DHT22;38531;53.296;6.614;2023-03-01T04:25:50;-2.30;99.90
52643;DHT22;38531;53.296;6.614;2023-03-01T04:28:34;-1.20;99.90
52643;DHT22;38531;53.296;6.614;2023-03-01T04:31:09;-2.30;99.90
52643;DHT22;38531;53.296;6.614;2023-03-01T04:36:13;-2.90;99.90
52643;DHT22;38531;53.296;6.614;2023-03-01T04:38:40;-3.00;99.90
52643;DHT22;38531;53.296;6.614;2023-03-01T04:41:10;-3.00;99.90
52643;DHT22;38531;53.296;6.614;2023-03-01T04:43:38;-2.20;99.90
52643;DHT22;38531;53.296;6.614;2023-03-01T04:46:06;-2.90;99.90
52643;DHT22;38531;53.296;6.614;2023-03-01T04:48:38;-2.90;99.90
52643;DHT22;38531;53.296;6.614;2023-03-01T04:51:05;-3.00;99.90
52643;DHT22;38531;53.296;6.614;2023-03-01T04:53:32;-2.30;99.90
52643;DHT22;38531;53.296;6.614;2023-03-01T04:55:58;-1.50;99.90
52643;DHT22;38531;53.296;6.614;2023-03-01T04:58:26;-2.60;99.90
52643;DHT22;38531;53.296;6.614;2023-03-01T05:00:52;-3.00;99.90
52643;DHT22;38531;53.296;6.614;2023-03-01T05:03:19;-3.30;99.90
52643;DHT22;38531;53.296;6.614;2023-03-01T05:05:47;-2.40;99.90
52643;DHT22;38531;53.296;6.614;2023-03-01T05:08:14;-3.90;99.90
52643;DHT22;38531;53.296;6.614;2023-03-01T05:10:50;-3.10;99.90
52643;DHT22;38531;53.296;6.614;2023-03-01T05:13:17;-3.40;99.90
52643;DHT22;38531;53.296;6.614;2023-03-01T05:15:58;-2.40;99.90
52643;DHT22;38531;53.296;6.614;2023-03-01T05:18:25;-3.50;99.90
52643;DHT22;38531;53.296;6.614;2023-03-01T05:21:07;-2.20;99.90
52643;DHT22;38531;53.296;6.614;2023-03-01T05:23:33;-3.40;99.90
52643;DHT22;38531;53.296;6.614;2023-03-01T05:26:00;-3.50;99.90
52643;DHT22;38531;53.296;6.614;2023-03-01T05:28:27;-3.50;99.90
52643;DHT22;38531;53.296;6.614;2023-03-01T05:30:57;-1.90;99.90
52643;DHT22;38531;53.296;6.614;2023-03-01T05:33:24;-3.60;99.90
52643;DHT22;38531;53.296;6.614;2023-03-01T05:35:51;-3.60;99.90
52643;DHT22;38531;53.296;6.614;2023-03-01T05:38:18;-3.40;99.90
52643;DHT22;38531;53.296;6.614;2023-03-01T05:40:46;-3.70;99.90
52643;DHT22;38531;53.296;6.614;2023-03-01T05:43:14;-3.90;99.90
52643;DHT22;38531;53.296;6.614;2023-03-01T05:45:40;-3.70;99.90
52643;DHT22;38531;53.296;6.614;2023-03-01T05:48:08;-3.20;99.90
52643;DHT22;38531;53.296;6.614;2023-03-01T05:50:41;-3.80;99.90
52643;DHT22;38531;53.296;6.614;2023-03-01T05:53:16;-3.10;99.90
52643;DHT22;38531;53.296;6.614;2023-03-01T05:55:42;-4.30;99.90
52643;DHT22;38531;53.296;6.614;2023-03-01T05:58:14;-3.20;99.90
52643;DHT22;38531;53.296;6.614;2023-03-01T06:00:41;-3.70;99.90
52643;DHT22;38531;53.296;6.614;2023-03-01T06:03:10;-2.70;99.90
52643;DHT22;38531;53.296;6.614;2023-03-01T06:05:36;-2.50;99.90
52643;DHT22;38531;53.296;6.614;2023-03-01T06:08:02;-3.70;99.90
52643;DHT22;38531;53.296;6.614;2023-03-01T06:10:29;-3.80;99.90
52643;DHT22;38531;53.296;6.614;2023-03-01T06:12:57;-3.80;99.90
52643;DHT22;38531;53.296;6.614;2023-03-01T06:15:26;-3.90;99.90
52643;DHT22;38531;53.296;6.614;2023-03-01T06:17:53;-3.00;99.90
52643;DHT22;38531;53.296;6.614;2023-03-01T06:20:23;-3.90;99.90
52643;DHT22;38531;53.296;6.614;2023-03-01T06:22:50;-3.10;99.90
52643;DHT22;38531;53.296;6.614;2023-03-01T06:25:21;-4.00;99.90
52643;DHT22;38531;53.296;6.614;2023-03-01T06:27:48;-3.80;99.90
52643;DHT22;38531;53.296;6.614;2023-03-01T06:30:16;-2.40;99.90
52643;DHT22;38531;53.296;6.614;2023-03-01T06:32:44;-3.80;99.90
52643;DHT22;38531;53.296;6.614;2023-03-01T06:35:12;-2.90;99.90
52643;DHT22;38531;53.296;6.614;2023-03-01T06:37:39;-1.90;99.90
52643;DHT22;38531;53.296;6.614;2023-03-01T06:40:05;-3.30;99.90
52643;DHT22;38531;53.296;6.614;2023-03-01T06:42:37;-3.90;99.90
52643;DHT22;38531;53.296;6.614;2023-03-01T06:45:04;-3.90;99.90
52643;DHT22;38531;53.296;6.614;2023-03-01T06:47:31;-3.80;99.90
52643;DHT22;38531;53.296;6.614;2023-03-01T06:50:02;-3.90;99.90
52643;DHT22;38531;53.296;6.614;2023-03-01T06:52:28;-3.80;99.90
52643;DHT22;38531;53.296;6.614;2023-03-01T06:54:54;-2.40;99.90
52643;DHT22;38531;53.296;6.614;2023-03-01T06:57:19;-3.20;99.90
52643;DHT22;38531;53.296;6.614;2023-03-01T06:59:46;-3.60;99.90
52643;DHT22;38531;53.296;6.614;2023-03-01T07:02:13;-3.60;99.90
52643;DHT22;38531;53.296;6.614;2023-03-01T07:04:39;-4.30;99.90
52643;DHT22;38531;53.296;6.614;2023-03-01T07:07:05;-2.50;99.90
52643;DHT22;38531;53.296;6.614;2023-03-01T07:09:31;-3.10;99.90
52643;DHT22;38531;53.296;6.614;2023-03-01T07:11:57;-2.00;99.90
52643;DHT22;38531;53.296;6.614;2023-03-01T07:14:23;-3.90;99.90
52643;DHT22;38531;53.296;6.614;2023-03-01T07:16:54;-3.60;99.90
52643;DHT22;38531;53.296;6.614;2023-03-01T07:19:21;-2.80;99.90
52643;DHT22;38531;53.296;6.614;2023-03-01T07:21:47;-2.30;99.90
52643;DHT22;38531;53.296;6.614;2023-03-01T07:24:12;-3.20;99.90
52643;DHT22;38531;53.296;6.614;2023-03-01T07:26:38;-3.60;99.90
52643;DHT22;38531;53.296;6.614;2023-03-01T07:29:06;-2.00;99.90
52643;DHT22;38531;53.296;6.614;2023-03-01T07:31:32;-3.60;99.90
52643;DHT22;38531;53.296;6.614;2023-03-01T07:33:58;-3.60;99.90
52643;DHT22;38531;53.296;6.614;2023-03-01T07:36:24;-3.30;99.90
52643;DHT22;38531;53.296;6.614;2023-03-01T07:38:51;-3.40;99.90
52643;DHT22;38531;53.296;6.614;2023-03-01T07:41:17;-3.40;99.90
52643;DHT22;38531;53.296;6.614;2023-03-01T07:43:43;-2.20;99.90
52643;DHT22;38531;53.296;6.614;2023-03-01T07:46:09;-3.60;99.90
52643;DHT22;38531;53.296;6.614;2023-03-01T07:48:35;-3.70;99.90
52643;DHT22;38531;53.296;6.614;2023-03-01T07:51:04;-2.50;99.90
52643;DHT22;38531;53.296;6.614;2023-03-01T07:53:30;-3.00;99.90
52643;DHT22;38531;53.296;6.614;2023-03-01T07:56:11;-2.90;99.90
52643;DHT22;38531;53.296;6.614;2023-03-01T07:58:42;-2.50;99.90
52643;DHT22;38531;53.296;6.614;2023-03-01T08:01:10;-1.20;99.90
52643;DHT22;38531;53.296;6.614;2023-03-01T08:03:36;-2.80;99.90
52643;DHT22;38531;53.296;6.614;2023-03-01T08:06:04;-2.10;99.90
52643;DHT22;38531;53.296;6.614;2023-03-01T08:08:31;-2.50;99.90
52643;DHT22;38531;53.296;6.614;2023-03-01T08:10:58;-2.40;99.90
52643;DHT22;38531;53.296;6.614;2023-03-01T08:13:25;-2.40;99.90
52643;DHT22;38531;53.296;6.614;2023-03-01T08:15:51;-1.80;99.90
52643;DHT22;38531;53.296;6.614;2023-03-01T08:18:18;-0.60;99.90
52643;DHT22;38531;53.296;6.614;2023-03-01T08:20:44;-1.90;99.90
52643;DHT22;38531;53.296;6.614;2023-03-01T08:23:16;-1.80;99.90
52643;DHT22;38531;53.296;6.614;2023-03-01T08:25:42;-1.30;99.90
52643;DHT22;38531;53.296;6.614;2023-03-01T08:28:11;-1.50;99.90
52643;DHT22;38531;53.296;6.614;2023-03-01T08:30:37;-2.00;99.90
52643;DHT22;38531;53.296;6.614;2023-03-01T08:33:03;-1.30;99.90
52643;DHT22;38531;53.296;6.614;2023-03-01T08:35:28;-1.10;99.90
52643;DHT22;38531;53.296;6.614;2023-03-01T08:37:57;-1.00;99.90
52643;DHT22;38531;53.296;6.614;2023-03-01T08:40:25;-0.80;99.90
52643;DHT22;38531;53.296;6.614;2023-03-01T08:42:51;0.10;99.90
52643;DHT22;38531;53.296;6.614;2023-03-01T08:45:17;0.40;99.90
52643;DHT22;38531;53.296;6.614;2023-03-01T08:47:44;-0.30;99.90
52643;DHT22;38531;53.296;6.614;2023-03-01T08:50:10;-0.20;99.90
52643;DHT22;38531;53.296;6.614;2023-03-01T08:52:36;-0.40;99.90
52643;DHT22;38531;53.296;6.614;2023-03-01T08:55:02;0.10;99.90
52643;DHT22;38531;53.296;6.614;2023-03-01T08:57:28;0.30;99.90
52643;DHT22;38531;53.296;6.614;2023-03-01T09:00:00;0.60;99.90
52643;DHT22;38531;53.296;6.614;2023-03-01T09:02:25;1.30;99.90
52643;DHT22;38531;53.296;6.614;2023-03-01T09:04:51;2.30;99.90
52643;DHT22;38531;53.296;6.614;2023-03-01T09:07:17;1.40;99.90
52643;DHT22;38531;53.296;6.614;2023-03-01T09:09:43;1.20;99.90
52643;DHT22;38531;53.296;6.614;2023-03-01T09:12:11;1.40;99.90
52643;DHT22;38531;53.296;6.614;2023-03-01T09:14:37;1.50;99.90
52643;DHT22;38531;53.296;6.614;2023-03-01T09:17:04;1.60;99.90
52643;DHT22;38531;53.296;6.614;2023-03-01T09:19:30;1.80;99.90
52643;DHT22;38531;53.296;6.614;2023-03-01T09:21:58;1.90;99.90
52643;DHT22;38531;53.296;6.614;2023-03-01T09:24:26;2.80;99.90
52643;DHT22;38531;53.296;6.614;2023-03-01T09:27:03;2.20;99.90
52643;DHT22;38531;53.296;6.614;2023-03-01T09:29:32;2.40;99.90
52643;DHT22;38531;53.296;6.614;2023-03-01T09:31:57;2.50;99.90
52643;DHT22;38531;53.296;6.614;2023-03-01T09:34:23;2.70;99.90
52643;DHT22;38531;53.296;6.614;2023-03-01T09:36:52;2.80;99.90
52643;DHT22;38531;53.296;6.614;2023-03-01T09:39:19;3.10;99.90
52643;DHT22;38531;53.296;6.614;2023-03-01T09:47:05;3.20;99.90
52643;DHT22;38531;53.296;6.614;2023-03-01T09:49:36;4.10;99.90
52643;DHT22;38531;53.296;6.614;2023-03-01T09:55:13;3.90;99.90
52643;DHT22;38531;53.296;6.614;2023-03-01T09:57:53;4.00;99.90
52643;DHT22;38531;53.296;6.614;2023-03-01T10:03:08;4.00;99.90
52643;DHT22;38531;53.296;6.614;2023-03-01T10:08:38;4.60;99.90
52643;DHT22;38531;53.296;6.614;2023-03-01T10:14:12;5.00;99.90
52643;DHT22;38531;53.296;6.614;2023-03-01T10:19:43;5.00;99.90
52643;DHT22;38531;53.296;6.614;2023-03-01T10:22:16;6.00;99.90
52643;DHT22;38531;53.296;6.614;2023-03-01T10:24:50;5.30;99.90
52643;DHT22;38531;53.296;6.614;2023-03-01T10:27:40;6.30;99.90
52643;DHT22;38531;53.296;6.614;2023-03-01T10:30:16;5.30;99.90
52643;DHT22;38531;53.296;6.614;2023-03-01T10:32:46;6.70;99.90
52643;DHT22;38531;53.296;6.614;2023-03-01T10:35:24;5.80;99.90
52643;DHT22;38531;53.296;6.614;2023-03-01T10:38:13;5.90;99.90
52643;DHT22;38531;53.296;6.614;2023-03-01T10:41:21;6.00;99.90
52643;DHT22;38531;53.296;6.614;2023-03-01T10:43:57;6.20;99.90
52643;DHT22;38531;53.296;6.614;2023-03-01T10:46:36;6.20;99.90
52643;DHT22;38531;53.296;6.614;2023-03-01T10:51:44;6.90;99.90
52643;DHT22;38531;53.296;6.614;2023-03-01T10:54:34;6.40;99.90
52643;DHT22;38531;53.296;6.614;2023-03-01T11:00:01;6.40;99.90
52643;DHT22;38531;53.296;6.614;2023-03-01T11:02:31;6.50;99.90
52643;DHT22;38531;53.296;6.614;2023-03-01T11:07:59;7.80;99.90
52643;DHT22;38531;53.296;6.614;2023-03-01T11:10:36;6.80;99.90
52643;DHT22;38531;53.296;6.614;2023-03-01T11:16:25;7.40;99.90
52643;DHT22;38531;53.296;6.614;2023-03-01T11:19:27;8.00;99.90
52643;DHT22;38531;53.296;6.614;2023-03-01T11:22:14;7.70;99.90
52643;DHT22;38531;53.296;6.614;2023-03-01T11:24:55;7.60;99.90
52643;DHT22;38531;53.296;6.614;2023-03-01T11:27:32;7.50;99.90
52643;DHT22;38531;53.296;6.614;2023-03-01T11:30:32;7.60;99.90
52643;DHT22;38531;53.296;6.614;2023-03-01T11:35:42;7.50;99.90
52643;DHT22;38531;53.296;6.614;2023-03-01T11:38:15;7.60;99.90
52643;DHT22;38531;53.296;6.614;2023-03-01T11:41:01;7.60;99.90
52643;DHT22;38531;53.296;6.614;2023-03-01T11:46:40;7.90;99.90
52643;DHT22;38531;53.296;6.614;2023-03-01T12:01:24;8.50;99.90
52643;DHT22;38531;53.296;6.614;2023-03-01T12:18:53;8.70;99.90
52643;DHT22;38531;53.296;6.614;2023-03-01T12:30:20;8.30;99.90
52643;DHT22;38531;53.296;6.614;2023-03-01T12:41:21;8.40;99.90
52643;DHT22;38531;53.296;6.614;2023-03-01T12:44:20;8.60;99.90
52643;DHT22;38531;53.296;6.614;2023-03-01T12:47:08;8.70;99.90
52643;DHT22;38531;53.296;6.614;2023-03-01T12:49:44;8.90;99.90
52643;DHT22;38531;53.296;6.614;2023-03-01T12:52:15;9.50;99.90
52643;DHT22;38531;53.296;6.614;2023-03-01T12:54:42;8.90;99.90
52643;DHT22;38531;53.296;6.614;2023-03-01T12:57:25;9.30;99.90
52643;DHT22;38531;53.296;6.614;2023-03-01T13:12:44;9.10;99.90
52643;DHT22;38531;53.296;6.614;2023-03-01T13:20:52;9.10;99.90
52643;DHT22;38531;53.296;6.614;2023-03-01T13:26:00;9.00;99.90
52643;DHT22;38531;53.296;6.614;2023-03-01T13:31:07;8.90;99.90
52643;DHT22;38531;53.296;6.614;2023-03-01T13:33:40;8.80;99.90
52643;DHT22;38531;53.296;6.614;2023-03-01T13:36:07;8.90;99.90
52643;DHT22;38531;53.296;6.614;2023-03-01T13:44:27;9.00;99.90
52643;DHT22;38531;53.296;6.614;2023-03-01T13:49:56;9.10;99.90
52643;DHT22;38531;53.296;6.614;2023-03-01T13:52:39;9.20;99.90
52643;DHT22;38531;53.296;6.614;2023-03-01T13:55:36;9.20;99.90
52643;DHT22;38531;53.296;6.614;2023-03-01T13:58:13;9.10;99.90
52643;DHT22;38531;53.296;6.614;2023-03-01T14:00:41;9.00;99.90
52643;DHT22;38531;53.296;6.614;2023-03-01T14:05:43;8.90;99.90
52643;DHT22;38531;53.296;6.614;2023-03-01T14:08:24;8.90;99.90
52643;DHT22;38531;53.296;6.614;2023-03-01T14:19:34;9.00;99.90
52643;DHT22;38531;53.296;6.614;2023-03-01T14:24:34;9.00;99.90
52643;DHT22;38531;53.296;6.614;2023-03-01T14:27:10;9.40;99.90
52643;DHT22;38531;53.296;6.614;2023-03-01T14:29:38;9.10;99.90
52643;DHT22;38531;53.296;6.614;2023-03-01T14:32:26;8.90;99.90
52643;DHT22;38531;53.296;6.614;2023-03-01T14:34:53;8.80;99.90
52643;DHT22;38531;53.296;6.614;2023-03-01T14:37:25;8.50;99.90
52643;DHT22;38531;53.296;6.614;2023-03-01T14:39:54;8.50;99.90
52643;DHT22;38531;53.296;6.614;2023-03-01T14:42:23;8.40;99.90
52643;DHT22;38531;53.296;6.614;2023-03-01T14:44:52;8.40;99.90
52643;DHT22;38531;53.296;6.614;2023-03-01T14:47:30;8.40;99.90
52643;DHT22;38531;53.296;6.614;2023-03-01T14:50:31;8.20;99.90
52643;DHT22;38531;53.296;6.614;2023-03-01T14:53:21;8.20;99.90
52643;DHT22;38531;53.296;6.614;2023-03-01T14:55:59;8.20;99.90
52643;DHT22;38531;53.296;6.614;2023-03-01T14:58:32;8.10;99.90
52643;DHT22;38531;53.296;6.614;2023-03-01T15:01:04;8.00;99.90
52643;DHT22;38531;53.296;6.614;2023-03-01T15:03:31;8.10;99.90
52643;DHT22;38531;53.296;6.614;2023-03-01T15:06:05;7.90;99.90
52643;DHT22;38531;53.296;6.614;2023-03-01T15:08:32;7.90;99.90
52643;DHT22;38531;53.296;6.614;2023-03-01T15:13:41;7.90;99.90
52643;DHT22;38531;53.296;6.614;2023-03-01T15:16:12;7.80;99.90
52643;DHT22;38531;53.296;6.614;2023-03-01T15:21:23;7.80;99.90
52643;DHT22;38531;53.296;6.614;2023-03-01T15:26:42;7.60;99.90
52643;DHT22;38531;53.296;6.614;2023-03-01T15:29:17;7.70;99.90
52643;DHT22;38531;53.296;6.614;2023-03-01T15:38:54;7.50;99.90
52643;DHT22;38531;53.296;6.614;2023-03-01T15:41:27;7.50;99.90
52643;DHT22;38531;53.296;6.614;2023-03-01T15:43:53;8.20;99.90
52643;DHT22;38531;53.296;6.614;2023-03-01T15:46:28;7.40;99.90
52643;DHT22;38531;53.296;6.614;2023-03-01T15:49:01;7.20;99.90
52643;DHT22;38531;53.296;6.614;2023-03-01T15:51:36;7.10;99.90
52643;DHT22;38531;53.296;6.614;2023-03-01T15:54:16;7.10;99.90
52643;DHT22;38531;53.296;6.614;2023-03-01T15:56:43;7.00;99.90
52643;DHT22;38531;53.296;6.614;2023-03-01T15:59:22;7.00;99.90
52643;DHT22;38531;53.296;6.614;2023-03-01T16:01:51;6.90;99.90
52643;DHT22;38531;53.296;6.614;2023-03-01T16:04:20;6.80;99.90
52643;DHT22;38531;53.296;6.614;2023-03-01T16:06:47;6.70;99.90
52643;DHT22;38531;53.296;6.614;2023-03-01T16:09:26;6.40;99.90
52643;DHT22;38531;53.296;6.614;2023-03-01T16:11:56;6.60;99.90
52643;DHT22;38531;53.296;6.614;2023-03-01T16:14:24;6.60;99.90
52643;DHT22;38531;53.296;6.614;2023-03-01T16:16:50;6.40;99.90
52643;DHT22;38531;53.296;6.614;2023-03-01T16:19:17;6.30;99.90
52643;DHT22;38531;53.296;6.614;2023-03-01T16:21:43;6.30;99.90
52643;DHT22;38531;53.296;6.614;2023-03-01T16:24:15;6.20;99.90
52643;DHT22;38531;53.296;6.614;2023-03-01T16:26:42;6.20;99.90
52643;DHT22;38531;53.296;6.614;2023-03-01T16:29:08;6.00;99.90
52643;DHT22;38531;53.296;6.614;2023-03-01T16:31:34;5.90;99.90
52643;DHT22;38531;53.296;6.614;2023-03-01T16:34:02;5.90;99.90
52643;DHT22;38531;53.296;6.614;2023-03-01T16:36:28;5.90;99.90
52643;DHT22;38531;53.296;6.614;2023-03-01T16:38:55;5.90;99.90
52643;DHT22;38531;53.296;6.614;2023-03-01T16:41:23;5.70;99.90
52643;DHT22;38531;53.296;6.614;2023-03-01T16:43:51;5.80;99.90
52643;DHT22;38531;53.296;6.614;2023-03-01T16:46:21;5.60;99.90
52643;DHT22;38531;53.296;6.614;2023-03-01T16:48:48;5.50;99.90
52643;DHT22;38531;53.296;6.614;2023-03-01T16:51:24;5.40;99.90
52643;DHT22;38531;53.296;6.614;2023-03-01T16:53:51;5.40;99.90
52643;DHT22;38531;53.296;6.614;2023-03-01T16:56:18;5.30;99.90
52643;DHT22;38531;53.296;6.614;2023-03-01T16:58:46;5.80;99.90
52643;DHT22;38531;53.296;6.614;2023-03-01T17:01:19;5.00;99.90
52643;DHT22;38531;53.296;6.614;2023-03-01T17:03:46;5.90;99.90
52643;DHT22;38531;53.296;6.614;2023-03-01T17:06:18;5.60;99.90
52643;DHT22;38531;53.296;6.614;2023-03-01T17:08:45;5.00;99.90
52643;DHT22;38531;53.296;6.614;2023-03-01T17:11:17;5.10;99.90
52643;DHT22;38531;53.296;6.614;2023-03-01T17:13:43;4.90;99.90
52643;DHT22;38531;53.296;6.614;2023-03-01T17:16:11;4.80;99.90
52643;DHT22;38531;53.296;6.614;2023-03-01T17:18:38;5.70;99.90
52643;DHT22;38531;53.296;6.614;2023-03-01T17:21:05;4.60;99.90
52643;DHT22;38531;53.296;6.614;2023-03-01T17:23:32;4.70;99.90
52643;DHT22;38531;53.296;6.614;2023-03-01T17:25:59;4.50;99.90
52643;DHT22;38531;53.296;6.614;2023-03-01T17:28:29;4.40;99.90
52643;DHT22;38531;53.296;6.614;2023-03-01T17:30:58;4.40;99.90
52643;DHT22;38531;53.296;6.614;2023-03-01T17:33:24;4.20;99.90
52643;DHT22;38531;53.296;6.614;2023-03-01T17:35:50;4.20;99.90
52643;DHT22;38531;53.296;6.614;2023-03-01T17:38:19;4.20;99.90
52643;DHT22;38531;53.296;6.614;2023-03-01T17:40:45;4.10;99.90
52643;DHT22;38531;53.296;6.614;2023-03-01T17:43:12;4.20;99.90
52643;DHT22;38531;53.296;6.614;2023-03-01T17:45:38;5.00;99.90
52643;DHT22;38531;53.296;6.614;2023-03-01T17:48:06;3.90;99.90
52643;DHT22;38531;53.296;6.614;2023-03-01T17:50:32;3.80;99.90
52643;DHT22;38531;53.296;6.614;2023-03-01T17:53:00;4.10;99.90
52643;DHT22;38531;53.296;6.614;2023-03-01T17:55:33;3.70;99.90
52643;DHT22;38531;53.296;6.614;2023-03-01T17:57:59;4.80;99.90
52643;DHT22;38531;53.296;6.614;2023-03-01T18:00:25;4.60;99.90
52643;DHT22;38531;53.296;6.614;2023-03-01T18:02:52;3.80;99.90
52643;DHT22;38531;53.296;6.614;2023-03-01T18:05:18;3.70;99.90
52643;DHT22;38531;53.296;6.614;2023-03-01T18:07:44;3.00;99.90
52643;DHT22;38531;53.296;6.614;2023-03-01T18:10:10;3.50;99.90
52643;DHT22;38531;53.296;6.614;2023-03-01T18:12:37;3.40;99.90
52643;DHT22;38531;53.296;6.614;2023-03-01T18:15:04;3.40;99.90
52643;DHT22;38531;53.296;6.614;2023-03-01T18:17:30;3.30;99.90
52643;DHT22;38531;53.296;6.614;2023-03-01T18:19:56;3.30;99.90
52643;DHT22;38531;53.296;6.614;2023-03-01T18:22:25;3.20;99.90
52643;DHT22;38531;53.296;6.614;2023-03-01T18:24:51;3.20;99.90
52643;DHT22;38531;53.296;6.614;2023-03-01T18:27:17;3.20;99.90
52643;DHT22;38531;53.296;6.614;2023-03-01T18:29:42;3.20;99.90
52643;DHT22;38531;53.296;6.614;2023-03-01T18:32:08;2.90;99.90
52643;DHT22;38531;53.296;6.614;2023-03-01T18:34:34;4.00;99.90
52643;DHT22;38531;53.296;6.614;2023-03-01T18:37:01;3.20;99.90
52643;DHT22;38531;53.296;6.614;2023-03-01T18:39:27;3.30;99.90
52643;DHT22;38531;53.296;6.614;2023-03-01T18:41:52;3.20;99.90
52643;DHT22;38531;53.296;6.614;2023-03-01T18:44:18;3.20;99.90
52643;DHT22;38531;53.296;6.614;2023-03-01T18:46:45;3.30;99.90
52643;DHT22;38531;53.296;6.614;2023-03-01T18:49:12;3.20;99.90
52643;DHT22;38531;53.296;6.614;2023-03-01T18:51:39;4.40;99.90
52643;DHT22;38531;53.296;6.614;2023-03-01T18:54:05;3.30;99.90
52643;DHT22;38531;53.296;6.614;2023-03-01T18:56:32;4.00;99.90
52643;DHT22;38531;53.296;6.614;2023-03-01T18:58:58;3.30;99.90
52643;DHT22;38531;53.296;6.614;2023-03-01T19:01:27;3.30;99.90
52643;DHT22;38531;53.296;6.614;2023-03-01T19:03:57;3.40;99.90
52643;DHT22;38531;53.296;6.614;2023-03-01T19:06:28;3.30;99.90
52643;DHT22;38531;53.296;6.614;2023-03-01T19:08:55;3.30;99.90
52643;DHT22;38531;53.296;6.614;2023-03-01T19:11:21;3.70;99.90
52643;DHT22;38531;53.296;6.614;2023-03-01T19:13:58;3.80;99.90
52643;DHT22;38531;53.296;6.614;2023-03-01T19:16:29;3.30;99.90
52643;DHT22;38531;53.296;6.614;2023-03-01T19:18:57;3.40;99.90
52643;DHT22;38531;53.296;6.614;2023-03-01T19:21:30;3.30;99.90
52643;DHT22;38531;53.296;6.614;2023-03-01T19:23:57;3.30;99.90
52643;DHT22;38531;53.296;6.614;2023-03-01T19:26:24;3.40;99.90
52643;DHT22;38531;53.296;6.614;2023-03-01T19:28:51;3.40;99.90
52643;DHT22;38531;53.296;6.614;2023-03-01T19:31:19;3.40;99.90
52643;DHT22;38531;53.296;6.614;2023-03-01T19:33:46;3.30;99.90
52643;DHT22;38531;53.296;6.614;2023-03-01T19:36:13;3.30;99.90
52643;DHT22;38531;53.296;6.614;2023-03-01T19:38:40;3.30;99.90
52643;DHT22;38531;53.296;6.614;2023-03-01T19:41:13;3.30;99.90
52643;DHT22;38531;53.296;6.614;2023-03-01T19:43:41;3.30;99.90
52643;DHT22;38531;53.296;6.614;2023-03-01T19:46:07;4.40;99.90
52643;DHT22;38531;53.296;6.614;2023-03-01T19:48:34;3.30;99.90
52643;DHT22;38531;53.296;6.614;2023-03-01T19:51:00;3.00;99.90
52643;DHT22;38531;53.296;6.614;2023-03-01T19:53:26;3.30;99.90
52643;DHT22;38531;53.296;6.614;2023-03-01T19:55:59;3.30;99.90
52643;DHT22;38531;53.296;6.614;2023-03-01T19:58:29;3.30;99.90
52643;DHT22;38531;53.296;6.614;2023-03-01T20:00:55;3.30;99.90
52643;DHT22;38531;53.296;6.614;2023-03-01T20:03:33;3.20;99.90
52643;DHT22;38531;53.296;6.614;2023-03-01T20:06:06;3.30;99.90
52643;DHT22;38531;53.296;6.614;2023-03-01T20:08:32;4.50;99.90
52643;DHT22;38531;53.296;6.614;2023-03-01T20:11:07;3.30;99.90
52643;DHT22;38531;53.296;6.614;2023-03-01T20:13:33;3.30;99.90
52643;DHT22;38531;53.296;6.614;2023-03-01T20:16:00;4.20;99.90
52643;DHT22;38531;53.296;6.614;2023-03-01T20:18:26;4.40;99.90
52643;DHT22;38531;53.296;6.614;2023-03-01T20:20:52;3.30;99.90
52643;DHT22;38531;53.296;6.614;2023-03-01T20:23:19;3.30;99.90
52643;DHT22;38531;53.296;6.614;2023-03-01T20:25:46;3.30;99.90
52643;DHT22;38531;53.296;6.614;2023-03-01T20:28:13;3.30;99.90
52643;DHT22;38531;53.296;6.614;2023-03-01T20:30:39;3.70;99.90
52643;DHT22;38531;53.296;6.614;2023-03-01T20:33:05;3.30;99.90
52643;DHT22;38531;53.296;6.614;2023-03-01T20:35:31;2.30;99.90
52643;DHT22;38531;53.296;6.614;2023-03-01T20:38:04;3.70;99.90
52643;DHT22;38531;53.296;6.614;2023-03-01T20:40:31;3.30;99.90
52643;DHT22;38531;53.296;6.614;2023-03-01T20:42:57;3.20;99.90
52643;DHT22;38531;53.296;6.614;2023-03-01T20:45:23;3.40;99.90
52643;DHT22;38531;53.296;6.614;2023-03-01T20:47:50;3.20;99.90
52643;DHT22;38531;53.296;6.614;2023-03-01T20:50:17;3.20;99.90
52643;DHT22;38531;53.296;6.614;2023-03-01T20:52:43;3.80;99.90
52643;DHT22;38531;53.296;6.614;2023-03-01T20:55:10;3.20;99.90
52643;DHT22;38531;53.296;6.614;2023-03-01T20:57:36;3.20;99.90
52643;DHT22;38531;53.296;6.614;2023-03-01T21:00:04;3.10;99.90
52643;DHT22;38531;53.296;6.614;2023-03-01T21:02:30;3.30;99.90